FJDG

Diego Garcia NSF Airport

Camp Justice, British Indian Ocean Territory
METAR FJDG 232355Z 12011KT 9999 FEW020 FEW090 SCT250 26/23 A2985 RMK SLP105 8/131 T02640232 10271 20262 56003
Observed Flight Rules
May-23 @ 23:55 UTC (2 hours ago) Visual Flight Rules
Wind Visibility Clouds
120° at 11 knots 10,000+ meters
  • Few at 2,000' AGL
  • Few at 9,000' AGL
  • Scattered at 25,000' AGL
Temperatures Readings
Current 26°C / 79°F
Dewpoint 23°C / 73°F
Humidity 84%
Altimeter 29.85" Hg
Pressure 1010.5 hPa
Elevation 3
METAR FJDG 232355Z 12011KT 9999 FEW020 FEW090 SCT250 26/23 A2985 RMK SLP105 8/131 T02640232 10271 20262 56003
Observed Flight Rules
May-23 @ 23:55 UTC
(2 hours ago)
VFR
Wind Visibility
120° at 11 knots 10,000+ meters
Clouds
  • Few at 2,000' AGL
  • Few at 9,000' AGL
  • Scattered at 25,000' AGL
Temperature Dewpoint
26°C / 79°F 23°C / 73°F
Humidity Altimeter Pressure
84% 29.85" Hg 1010.5 hPa